Terminal Aerodrome Forecast
Issued by NWS Springfield, MO

Home | Current Version | Previous Version | Text Only | Print | Product List | Glossary On
Versions: 1 2 3 4 5 6 7 8 9 10 11 12 13 14 15 16 17 18 19 20 21 22 23 24 25 26
000
FTUS43 KSGF 270000 AAA
TAFSGF
TAF AMD
KSGF 270020Z 2700/2724 31013KT P6SM SCT020 OVC040
      TEMPO 2700/2701 30015G20KT
     FM270900 34007KT P6SM SCT040
     FM271300 36005KT P6SM SKC=

USA.gov is the U.S. government's official web portal to all federal, state and local government web resources and services.